METAR AND TAF INFORMATION
METAR FOR DTTG
ADDS - METARS form results

(1918 UTC 26 April 2018)
Data provider http://aviationweather.gov/adds/metars/
 
METAR text: DTTG 261900Z 04010KT 8000 FEW030 19/16 Q1004 NOSIG
Conditions at: DTTG (GABES , TN) observed 1900 UTC 26 April 2018
Temperature: 19.0°C (66°F)
Dewpoint: 16.0°C (61°F) [RH = 83%]
Pressure (altimeter): 29.65 inches Hg (1004.0 mb)
Winds: from the NE (40 degrees) at 12 MPH (10 knots; 5.2 m/s)
Visibility: 5 miles (8 km)
Ceiling: at least 12,000 feet AGL
Clouds: few clouds at 3000 feet AGL
Weather: no significant weather observed at this time

Forecast for: DTTG (GABES , TN)
Text: TAF DTTG 261800Z 2619/2704 05012KT 9999 FEW020
Forecast period: 1900 UTC 26 April 2018 to 0400 UTC 27 April 2018
Forecast type: FROM: standard forecast or significant change
Winds: from the NE (50 degrees) at 14 MPH (12 knots; 6.2 m/s)
Visibility: 6 or more miles (10+ km)
Clouds: few clouds at 2000 feet AGL
Weather: no significant weather forecast for this period

 AIRPORT MAP

 RUNWAY INFORMATION
Runway 06 Runway length 3702 ft Runway width 82 ft
Runway elevation 0 ft Runway displaced threshold 0 ft Runway heading 61
Runway 24 Runway length 3702 ft Runway width 82 ft
Runway elevation 0 ft Runway displaced threshold 0 ft Runway heading 241

 AIRPORT FREQUENCIES

 AIRPORT NEAR NAVIGATION AIDS
Type VOR-DME Name Gabes Frequency 115400 KHZ



v2.6.1